sensor_id;sensor_type;location;lat;lon;timestamp;noise_LAeq;noise_LA_min;noise_LA_max;noise_LA01;noise_LA95
66456;Laerm;56833;52.254;5.598;2023-05-10T00:00:01;42.39;41.35;43.43;;
66456;Laerm;56833;52.254;5.598;2023-05-10T00:00:14;42.40;41.37;43.47;;
66456;Laerm;56833;52.254;5.598;2023-05-10T00:00:25;42.41;41.28;43.59;;
66456;Laerm;56833;52.254;5.598;2023-05-10T00:00:35;42.38;41.39;43.61;;
66456;Laerm;56833;52.254;5.598;2023-05-10T00:00:45;42.43;41.32;43.61;;
66456;Laerm;56833;52.254;5.598;2023-05-10T00:00:56;42.41;41.25;43.44;;
66456;Laerm;56833;52.254;5.598;2023-05-10T00:01:07;42.39;41.31;43.45;;
66456;Laerm;56833;52.254;5.598;2023-05-10T00:01:17;42.39;41.29;43.45;;
66456;Laerm;56833;52.254;5.598;2023-05-10T00:01:27;42.42;41.52;43.37;;
66456;Laerm;56833;52.254;5.598;2023-05-10T00:01:38;42.40;41.53;43.58;;
66456;Laerm;56833;52.254;5.598;2023-05-10T00:01:48;42.43;41.32;43.45;;
66456;Laerm;56833;52.254;5.598;2023-05-10T00:02:02;42.40;41.15;43.26;;
66456;Laerm;56833;52.254;5.598;2023-05-10T00:02:12;42.44;41.45;43.42;;
66456;Laerm;56833;52.254;5.598;2023-05-10T00:02:22;42.35;41.11;43.20;;
66456;Laerm;56833;52.254;5.598;2023-05-10T00:02:32;42.40;41.22;43.27;;
66456;Laerm;56833;52.254;5.598;2023-05-10T00:02:44;42.39;41.12;43.29;;
66456;Laerm;56833;52.254;5.598;2023-05-10T00:02:54;42.40;41.44;43.61;;
66456;Laerm;56833;52.254;5.598;2023-05-10T00:03:04;42.46;41.19;43.50;;
66456;Laerm;56833;52.254;5.598;2023-05-10T00:03:15;42.40;41.27;43.50;;
66456;Laerm;56833;52.254;5.598;2023-05-10T00:03:25;42.43;41.42;43.47;;
66456;Laerm;56833;52.254;5.598;2023-05-10T00:03:35;42.41;41.31;43.41;;
66456;Laerm;56833;52.254;5.598;2023-05-10T00:03:46;42.41;41.34;43.40;;
66456;Laerm;56833;52.254;5.598;2023-05-10T00:03:56;42.38;41.33;43.52;;
66456;Laerm;56833;52.254;5.598;2023-05-10T00:04:06;42.45;41.49;43.52;;
66456;Laerm;56833;52.254;5.598;2023-05-10T00:04:16;42.36;41.08;43.24;;
66456;Laerm;56833;52.254;5.598;2023-05-10T00:04:27;42.41;41.18;43.75;;
66456;Laerm;56833;52.254;5.598;2023-05-10T00:04:38;42.40;41.43;43.62;;
66456;Laerm;56833;52.254;5.598;2023-05-10T00:04:48;42.42;41.27;43.37;;
66456;Laerm;56833;52.254;5.598;2023-05-10T00:04:59;42.42;41.38;43.40;;
66456;Laerm;56833;52.254;5.598;2023-05-10T00:05:09;42.42;41.30;43.38;;
66456;Laerm;56833;52.254;5.598;2023-05-10T00:05:19;42.44;41.51;43.40;;
66456;Laerm;56833;52.254;5.598;2023-05-10T00:05:30;42.38;41.06;43.33;;
66456;Laerm;56833;52.254;5.598;2023-05-10T00:05:40;42.41;41.40;43.50;;
66456;Laerm;56833;52.254;5.598;2023-05-10T00:05:51;42.36;41.31;43.33;;
66456;Laerm;56833;52.254;5.598;2023-05-10T00:06:01;42.43;41.40;43.46;;
66456;Laerm;56833;52.254;5.598;2023-05-10T00:06:11;42.45;41.46;43.20;;
66456;Laerm;56833;52.254;5.598;2023-05-10T00:06:22;42.44;41.28;43.40;;
66456;Laerm;56833;52.254;5.598;2023-05-10T00:06:32;42.41;41.33;43.60;;
66456;Laerm;56833;52.254;5.598;2023-05-10T00:06:42;42.42;41.39;43.42;;
66456;Laerm;56833;52.254;5.598;2023-05-10T00:06:53;42.39;41.20;43.40;;
66456;Laerm;56833;52.254;5.598;2023-05-10T00:07:03;42.43;41.20;43.46;;
66456;Laerm;56833;52.254;5.598;2023-05-10T00:07:13;42.42;41.20;43.38;;
66456;Laerm;56833;52.254;5.598;2023-05-10T00:07:24;42.41;41.52;43.82;;
66456;Laerm;56833;52.254;5.598;2023-05-10T00:07:34;42.38;41.41;43.29;;
66456;Laerm;56833;52.254;5.598;2023-05-10T00:07:44;42.41;41.55;43.46;;
66456;Laerm;56833;52.254;5.598;2023-05-10T00:07:55;42.39;41.24;43.50;;
66456;Laerm;56833;52.254;5.598;2023-05-10T00:08:05;42.43;41.46;43.44;;
66456;Laerm;56833;52.254;5.598;2023-05-10T00:08:15;42.40;41.26;43.21;;
66456;Laerm;56833;52.254;5.598;2023-05-10T00:08:25;42.38;41.33;43.21;;
66456;Laerm;56833;52.254;5.598;2023-05-10T00:08:36;42.41;41.47;43.44;;
66456;Laerm;56833;52.254;5.598;2023-05-10T00:08:46;42.41;41.38;43.25;;
66456;Laerm;56833;52.254;5.598;2023-05-10T00:08:56;42.47;41.46;43.47;;
66456;Laerm;56833;52.254;5.598;2023-05-10T00:09:07;42.39;41.24;43.46;;
66456;Laerm;56833;52.254;5.598;2023-05-10T00:09:17;42.42;41.24;43.59;;
66456;Laerm;56833;52.254;5.598;2023-05-10T00:09:27;42.43;41.48;43.44;;
66456;Laerm;56833;52.254;5.598;2023-05-10T00:09:38;42.38;41.37;43.34;;
66456;Laerm;56833;52.254;5.598;2023-05-10T00:09:51;42.48;41.47;43.46;;
66456;Laerm;56833;52.254;5.598;2023-05-10T00:10:01;42.43;41.51;43.34;;
66456;Laerm;56833;52.254;5.598;2023-05-10T00:10:11;42.39;41.42;43.46;;
66456;Laerm;56833;52.254;5.598;2023-05-10T00:10:22;42.44;41.44;43.40;;
66456;Laerm;56833;52.254;5.598;2023-05-10T00:10:32;42.44;41.49;43.63;;
66456;Laerm;56833;52.254;5.598;2023-05-10T00:10:42;42.41;41.56;43.80;;
66456;Laerm;56833;52.254;5.598;2023-05-10T00:10:52;42.39;41.29;43.45;;
66456;Laerm;56833;52.254;5.598;2023-05-10T00:11:03;42.39;41.13;43.53;;
66456;Laerm;56833;52.254;5.598;2023-05-10T00:11:13;42.44;41.68;43.55;;
66456;Laerm;56833;52.254;5.598;2023-05-10T00:11:23;42.42;41.41;43.35;;
66456;Laerm;56833;52.254;5.598;2023-05-10T00:11:34;42.46;41.45;43.45;;
66456;Laerm;56833;52.254;5.598;2023-05-10T00:11:44;42.39;41.25;43.68;;
66456;Laerm;56833;52.254;5.598;2023-05-10T00:11:54;42.44;41.37;43.60;;
66456;Laerm;56833;52.254;5.598;2023-05-10T00:12:05;42.42;41.54;43.70;;
66456;Laerm;56833;52.254;5.598;2023-05-10T00:12:15;42.42;41.30;43.53;;
66456;Laerm;56833;52.254;5.598;2023-05-10T00:12:25;42.42;41.51;43.30;;
66456;Laerm;56833;52.254;5.598;2023-05-10T00:12:35;42.38;41.32;43.45;;
66456;Laerm;56833;52.254;5.598;2023-05-10T00:12:46;42.40;41.13;43.84;;
66456;Laerm;56833;52.254;5.598;2023-05-10T00:12:56;42.37;41.38;43.37;;
66456;Laerm;56833;52.254;5.598;2023-05-10T00:13:06;42.41;41.45;44.13;;
66456;Laerm;56833;52.254;5.598;2023-05-10T00:13:17;42.42;41.02;43.30;;
66456;Laerm;56833;52.254;5.598;2023-05-10T00:13:27;42.41;41.28;43.32;;
66456;Laerm;56833;52.254;5.598;2023-05-10T00:13:37;42.44;41.33;43.42;;
66456;Laerm;56833;52.254;5.598;2023-05-10T00:13:47;42.38;41.24;43.17;;
66456;Laerm;56833;52.254;5.598;2023-05-10T00:13:58;42.39;41.41;43.40;;
66456;Laerm;56833;52.254;5.598;2023-05-10T00:14:08;42.41;41.51;43.27;;
66456;Laerm;56833;52.254;5.598;2023-05-10T00:14:18;42.41;41.17;43.28;;
66456;Laerm;56833;52.254;5.598;2023-05-10T00:14:29;42.43;41.33;43.46;;
66456;Laerm;56833;52.254;5.598;2023-05-10T00:14:39;42.38;41.27;43.46;;
66456;Laerm;56833;52.254;5.598;2023-05-10T00:14:50;42.39;41.20;43.55;;
66456;Laerm;56833;52.254;5.598;2023-05-10T00:15:00;42.40;41.12;43.51;;
66456;Laerm;56833;52.254;5.598;2023-05-10T00:15:10;42.39;41.45;43.42;;
66456;Laerm;56833;52.254;5.598;2023-05-10T00:15:21;42.42;41.41;43.60;;
66456;Laerm;56833;52.254;5.598;2023-05-10T00:15:31;42.41;41.36;43.62;;
66456;Laerm;56833;52.254;5.598;2023-05-10T00:15:41;42.39;41.52;43.21;;
66456;Laerm;56833;52.254;5.598;2023-05-10T00:15:52;42.42;41.56;43.46;;
66456;Laerm;56833;52.254;5.598;2023-05-10T00:16:03;42.44;41.33;43.44;;
66456;Laerm;56833;52.254;5.598;2023-05-10T00:16:13;42.44;41.42;43.55;;
66456;Laerm;56833;52.254;5.598;2023-05-10T00:16:23;42.38;40.75;43.50;;
66456;Laerm;56833;52.254;5.598;2023-05-10T00:16:34;42.40;41.48;43.41;;
66456;Laerm;56833;52.254;5.598;2023-05-10T00:16:44;42.41;41.34;43.64;;
66456;Laerm;56833;52.254;5.598;2023-05-10T00:16:56;42.37;41.43;43.35;;
66456;Laerm;56833;52.254;5.598;2023-05-10T00:17:07;42.39;41.37;43.25;;
66456;Laerm;56833;52.254;5.598;2023-05-10T00:17:17;42.41;41.28;43.40;;
66456;Laerm;56833;52.254;5.598;2023-05-10T00:17:28;42.44;41.50;43.30;;
66456;Laerm;56833;52.254;5.598;2023-05-10T00:17:38;42.42;40.98;43.65;;
66456;Laerm;56833;52.254;5.598;2023-05-10T00:17:48;42.39;41.35;43.26;;
66456;Laerm;56833;52.254;5.598;2023-05-10T00:17:59;42.39;41.38;43.27;;
66456;Laerm;56833;52.254;5.598;2023-05-10T00:18:09;42.38;41.21;43.48;;
66456;Laerm;56833;52.254;5.598;2023-05-10T00:18:19;42.36;41.35;43.28;;
66456;Laerm;56833;52.254;5.598;2023-05-10T00:18:30;42.34;41.30;43.46;;
66456;Laerm;56833;52.254;5.598;2023-05-10T00:18:40;42.40;41.26;43.58;;
66456;Laerm;56833;52.254;5.598;2023-05-10T00:18:50;42.39;41.26;43.64;;
66456;Laerm;56833;52.254;5.598;2023-05-10T00:19:01;42.37;41.28;43.73;;
66456;Laerm;56833;52.254;5.598;2023-05-10T00:19:11;42.38;41.30;43.62;;
66456;Laerm;56833;52.254;5.598;2023-05-10T00:19:21;42.41;41.44;43.28;;
66456;Laerm;56833;52.254;5.598;2023-05-10T00:19:31;42.38;41.41;43.59;;
66456;Laerm;56833;52.254;5.598;2023-05-10T00:19:42;42.38;41.32;43.52;;
66456;Laerm;56833;52.254;5.598;2023-05-10T00:19:52;42.36;41.39;43.57;;
66456;Laerm;56833;52.254;5.598;2023-05-10T00:20:02;42.42;41.34;43.41;;
66456;Laerm;56833;52.254;5.598;2023-05-10T00:20:14;42.37;40.76;43.42;;
66456;Laerm;56833;52.254;5.598;2023-05-10T00:20:25;42.34;41.31;43.27;;
66456;Laerm;56833;52.254;5.598;2023-05-10T00:20:35;42.32;41.18;43.23;;
66456;Laerm;56833;52.254;5.598;2023-05-10T00:20:45;42.28;41.33;43.27;;
66456;Laerm;56833;52.254;5.598;2023-05-10T00:20:56;42.36;41.34;43.41;;
66456;Laerm;56833;52.254;5.598;2023-05-10T00:21:06;42.30;41.41;43.33;;
66456;Laerm;56833;52.254;5.598;2023-05-10T00:21:16;42.31;41.17;43.36;;
66456;Laerm;56833;52.254;5.598;2023-05-10T00:21:26;42.31;41.18;43.31;;
66456;Laerm;56833;52.254;5.598;2023-05-10T00:21:38;42.32;41.06;43.25;;
66456;Laerm;56833;52.254;5.598;2023-05-10T00:21:48;42.32;41.23;43.30;;
66456;Laerm;56833;52.254;5.598;2023-05-10T00:21:59;42.36;41.35;43.24;;
66456;Laerm;56833;52.254;5.598;2023-05-10T00:22:09;42.34;41.31;43.63;;
66456;Laerm;56833;52.254;5.598;2023-05-10T00:22:20;42.32;41.14;43.54;;
66456;Laerm;56833;52.254;5.598;2023-05-10T00:22:31;42.35;41.41;43.42;;
66456;Laerm;56833;52.254;5.598;2023-05-10T00:22:41;42.28;41.24;43.38;;
66456;Laerm;56833;52.254;5.598;2023-05-10T00:22:55;42.32;41.24;43.37;;
66456;Laerm;56833;52.254;5.598;2023-05-10T00:23:05;42.31;41.39;43.40;;
66456;Laerm;56833;52.254;5.598;2023-05-10T00:23:15;42.34;41.34;43.55;;
66456;Laerm;56833;52.254;5.598;2023-05-10T00:23:25;42.31;41.32;43.25;;
66456;Laerm;56833;52.254;5.598;2023-05-10T00:23:36;42.31;41.14;43.33;;
66456;Laerm;56833;52.254;5.598;2023-05-10T00:23:46;42.33;41.34;43.36;;
66456;Laerm;56833;52.254;5.598;2023-05-10T00:23:56;42.32;40.94;43.33;;
66456;Laerm;56833;52.254;5.598;2023-05-10T00:24:07;42.30;41.33;43.25;;
66456;Laerm;56833;52.254;5.598;2023-05-10T00:24:17;42.32;41.25;43.57;;
66456;Laerm;56833;52.254;5.598;2023-05-10T00:24:27;42.34;40.99;43.38;;
66456;Laerm;56833;52.254;5.598;2023-05-10T00:24:37;42.35;41.49;43.47;;
66456;Laerm;56833;52.254;5.598;2023-05-10T00:24:48;42.31;41.25;43.51;;
66456;Laerm;56833;52.254;5.598;2023-05-10T00:24:58;42.33;41.24;43.41;;
66456;Laerm;56833;52.254;5.598;2023-05-10T00:25:09;42.31;41.28;43.36;;
66456;Laerm;56833;52.254;5.598;2023-05-10T00:25:20;42.28;41.34;43.15;;
66456;Laerm;56833;52.254;5.598;2023-05-10T00:25:31;42.31;41.14;43.38;;
66456;Laerm;56833;52.254;5.598;2023-05-10T00:25:41;42.27;41.03;43.22;;
66456;Laerm;56833;52.254;5.598;2023-05-10T00:25:52;42.33;41.35;43.33;;
66456;Laerm;56833;52.254;5.598;2023-05-10T00:26:02;42.34;41.20;43.64;;
66456;Laerm;56833;52.254;5.598;2023-05-10T00:26:12;42.28;41.33;43.38;;
66456;Laerm;56833;52.254;5.598;2023-05-10T00:26:23;42.31;41.29;43.26;;
66456;Laerm;56833;52.254;5.598;2023-05-10T00:26:33;42.31;41.07;43.30;;
66456;Laerm;56833;52.254;5.598;2023-05-10T00:26:43;42.34;41.34;43.46;;
66456;Laerm;56833;52.254;5.598;2023-05-10T00:26:54;42.32;41.32;43.45;;
66456;Laerm;56833;52.254;5.598;2023-05-10T00:27:04;42.31;41.03;43.44;;
66456;Laerm;56833;52.254;5.598;2023-05-10T00:27:18;42.31;41.29;43.41;;
66456;Laerm;56833;52.254;5.598;2023-05-10T00:27:28;42.31;41.32;43.27;;
66456;Laerm;56833;52.254;5.598;2023-05-10T00:27:38;42.30;41.00;43.56;;
66456;Laerm;56833;52.254;5.598;2023-05-10T00:27:48;42.30;41.25;43.21;;
66456;Laerm;56833;52.254;5.598;2023-05-10T00:27:59;42.28;41.41;43.24;;
66456;Laerm;56833;52.254;5.598;2023-05-10T00:28:11;42.29;40.68;43.08;;
66456;Laerm;56833;52.254;5.598;2023-05-10T00:28:21;42.33;41.04;43.39;;
66456;Laerm;56833;52.254;5.598;2023-05-10T00:28:32;42.32;41.25;43.34;;
66456;Laerm;56833;52.254;5.598;2023-05-10T00:28:42;42.34;41.28;43.40;;
66456;Laerm;56833;52.254;5.598;2023-05-10T00:28:52;42.32;41.34;43.26;;
66456;Laerm;56833;52.254;5.598;2023-05-10T00:29:02;42.30;41.37;43.32;;
66456;Laerm;56833;52.254;5.598;2023-05-10T00:29:13;42.32;41.51;43.32;;
66456;Laerm;56833;52.254;5.598;2023-05-10T00:29:23;42.30;41.24;43.31;;
66456;Laerm;56833;52.254;5.598;2023-05-10T00:29:34;42.30;41.40;43.37;;
66456;Laerm;56833;52.254;5.598;2023-05-10T00:29:44;42.33;41.29;43.30;;
66456;Laerm;56833;52.254;5.598;2023-05-10T00:29:55;42.31;41.24;43.35;;
66456;Laerm;56833;52.254;5.598;2023-05-10T00:30:07;42.32;41.21;43.39;;
66456;Laerm;56833;52.254;5.598;2023-05-10T00:30:17;42.32;41.23;43.52;;
66456;Laerm;56833;52.254;5.598;2023-05-10T00:30:28;42.27;41.25;43.34;;
66456;Laerm;56833;52.254;5.598;2023-05-10T00:30:39;42.31;41.18;43.45;;
66456;Laerm;56833;52.254;5.598;2023-05-10T00:30:49;42.28;41.04;43.59;;
66456;Laerm;56833;52.254;5.598;2023-05-10T00:30:59;42.31;41.18;43.17;;
66456;Laerm;56833;52.254;5.598;2023-05-10T00:31:10;42.31;41.00;43.42;;
66456;Laerm;56833;52.254;5.598;2023-05-10T00:31:20;42.27;41.08;43.24;;
66456;Laerm;56833;52.254;5.598;2023-05-10T00:31:30;42.31;41.27;43.26;;
66456;Laerm;56833;52.254;5.598;2023-05-10T00:31:40;42.26;41.08;43.37;;
66456;Laerm;56833;52.254;5.598;2023-05-10T00:31:51;42.34;41.21;43.55;;
66456;Laerm;56833;52.254;5.598;2023-05-10T00:32:01;42.32;41.24;43.16;;
66456;Laerm;56833;52.254;5.598;2023-05-10T00:32:11;42.31;41.25;43.23;;
66456;Laerm;56833;52.254;5.598;2023-05-10T00:32:23;42.32;41.12;43.42;;
66456;Laerm;56833;52.254;5.598;2023-05-10T00:32:34;42.27;41.13;43.35;;
66456;Laerm;56833;52.254;5.598;2023-05-10T00:32:44;42.30;41.15;43.17;;
66456;Laerm;56833;52.254;5.598;2023-05-10T00:32:55;42.31;41.22;43.41;;
66456;Laerm;56833;52.254;5.598;2023-05-10T00:33:05;42.32;41.24;43.32;;
66456;Laerm;56833;52.254;5.598;2023-05-10T00:33:15;42.29;41.11;43.72;;
66456;Laerm;56833;52.254;5.598;2023-05-10T00:33:26;42.30;41.20;43.45;;
66456;Laerm;56833;52.254;5.598;2023-05-10T00:33:36;42.34;41.37;43.34;;
66456;Laerm;56833;52.254;5.598;2023-05-10T00:33:46;42.29;41.37;43.52;;
66456;Laerm;56833;52.254;5.598;2023-05-10T00:33:57;42.25;41.30;43.46;;
66456;Laerm;56833;52.254;5.598;2023-05-10T00:34:07;42.31;41.23;43.48;;
66456;Laerm;56833;52.254;5.598;2023-05-10T00:34:17;42.31;41.26;43.57;;
66456;Laerm;56833;52.254;5.598;2023-05-10T00:34:28;42.30;41.23;43.29;;
66456;Laerm;56833;52.254;5.598;2023-05-10T00:34:38;42.27;41.18;43.26;;
66456;Laerm;56833;52.254;5.598;2023-05-10T00:34:48;42.33;41.27;43.45;;
66456;Laerm;56833;52.254;5.598;2023-05-10T00:34:58;42.33;41.02;43.31;;
66456;Laerm;56833;52.254;5.598;2023-05-10T00:35:09;42.31;41.24;43.20;;
66456;Laerm;56833;52.254;5.598;2023-05-10T00:35:19;42.31;41.33;43.40;;
66456;Laerm;56833;52.254;5.598;2023-05-10T00:35:30;42.32;41.15;43.38;;
66456;Laerm;56833;52.254;5.598;2023-05-10T00:35:40;42.32;41.25;43.36;;
66456;Laerm;56833;52.254;5.598;2023-05-10T00:35:50;42.28;41.23;43.20;;
66456;Laerm;56833;52.254;5.598;2023-05-10T00:36:01;42.29;41.10;43.27;;
66456;Laerm;56833;52.254;5.598;2023-05-10T00:36:11;42.29;41.05;43.58;;
66456;Laerm;56833;52.254;5.598;2023-05-10T00:36:21;42.32;41.15;43.33;;
66456;Laerm;56833;52.254;5.598;2023-05-10T00:36:32;42.32;41.23;43.39;;
66456;Laerm;56833;52.254;5.598;2023-05-10T00:36:42;42.30;41.39;43.33;;
66456;Laerm;56833;52.254;5.598;2023-05-10T00:36:52;42.26;41.28;43.31;;
66456;Laerm;56833;52.254;5.598;2023-05-10T00:37:04;42.30;41.19;43.33;;
66456;Laerm;56833;52.254;5.598;2023-05-10T00:37:14;42.29;41.11;43.10;;
66456;Laerm;56833;52.254;5.598;2023-05-10T00:37:25;42.30;41.05;43.48;;
66456;Laerm;56833;52.254;5.598;2023-05-10T00:37:35;42.30;41.19;43.27;;
66456;Laerm;56833;52.254;5.598;2023-05-10T00:37:45;42.31;41.29;43.22;;
66456;Laerm;56833;52.254;5.598;2023-05-10T00:37:56;42.29;41.13;43.47;;
66456;Laerm;56833;52.254;5.598;2023-05-10T00:38:06;42.27;41.40;43.21;;
66456;Laerm;56833;52.254;5.598;2023-05-10T00:38:16;42.29;41.41;43.35;;
66456;Laerm;56833;52.254;5.598;2023-05-10T00:38:28;42.25;41.05;43.22;;
66456;Laerm;56833;52.254;5.598;2023-05-10T00:38:38;42.32;41.25;43.30;;
66456;Laerm;56833;52.254;5.598;2023-05-10T00:38:48;42.25;40.98;43.10;;
66456;Laerm;56833;52.254;5.598;2023-05-10T00:38:59;42.26;41.32;43.20;;
66456;Laerm;56833;52.254;5.598;2023-05-10T00:39:09;42.24;41.21;43.32;;
66456;Laerm;56833;52.254;5.598;2023-05-10T00:39:19;42.29;41.19;43.36;;
66456;Laerm;56833;52.254;5.598;2023-05-10T00:39:30;42.29;41.21;43.10;;
66456;Laerm;56833;52.254;5.598;2023-05-10T00:39:40;42.30;41.20;43.29;;
66456;Laerm;56833;52.254;5.598;2023-05-10T00:39:50;42.29;40.89;43.33;;
66456;Laerm;56833;52.254;5.598;2023-05-10T00:40:00;42.25;41.30;43.13;;
66456;Laerm;56833;52.254;5.598;2023-05-10T00:40:11;42.29;40.96;43.26;;
66456;Laerm;56833;52.254;5.598;2023-05-10T00:40:21;42.31;41.23;43.56;;
66456;Laerm;56833;52.254;5.598;2023-05-10T00:40:32;42.30;41.28;43.25;;
66456;Laerm;56833;52.254;5.598;2023-05-10T00:40:42;42.27;41.17;43.45;;
66456;Laerm;56833;52.254;5.598;2023-05-10T00:40:52;42.28;41.11;43.16;;
66456;Laerm;56833;52.254;5.598;2023-05-10T00:41:03;42.28;41.31;43.25;;
66456;Laerm;56833;52.254;5.598;2023-05-10T00:41:13;42.27;40.68;43.75;;
66456;Laerm;56833;52.254;5.598;2023-05-10T00:41:23;42.32;41.28;43.30;;
66456;Laerm;56833;52.254;5.598;2023-05-10T00:41:34;42.34;41.38;43.62;;
66456;Laerm;56833;52.254;5.598;2023-05-10T00:41:44;42.32;40.98;43.38;;
66456;Laerm;56833;52.254;5.598;2023-05-10T00:41:55;42.29;41.30;43.38;;
66456;Laerm;56833;52.254;5.598;2023-05-10T00:42:05;42.27;41.28;43.35;;
66456;Laerm;56833;52.254;5.598;2023-05-10T00:42:15;42.29;41.39;43.31;;
66456;Laerm;56833;52.254;5.598;2023-05-10T00:42:26;42.31;41.26;43.35;;
66456;Laerm;56833;52.254;5.598;2023-05-10T00:42:36;42.30;41.29;43.46;;
66456;Laerm;56833;52.254;5.598;2023-05-10T00:42:53;42.28;41.08;43.46;;
66456;Laerm;56833;52.254;5.598;2023-05-10T00:43:03;42.31;41.13;43.56;;
66456;Laerm;56833;52.254;5.598;2023-05-10T00:43:14;42.28;40.85;43.23;;
66456;Laerm;56833;52.254;5.598;2023-05-10T00:43:25;42.28;41.31;43.52;;
66456;Laerm;56833;52.254;5.598;2023-05-10T00:43:36;42.29;41.29;43.67;;
66456;Laerm;56833;52.254;5.598;2023-05-10T00:43:46;42.28;41.12;43.35;;
66456;Laerm;56833;52.254;5.598;2023-05-10T00:43:56;42.29;41.27;43.17;;
66456;Laerm;56833;52.254;5.598;2023-05-10T00:44:09;42.28;41.08;43.26;;
66456;Laerm;56833;52.254;5.598;2023-05-10T00:44:20;42.26;40.99;43.36;;
66456;Laerm;56833;52.254;5.598;2023-05-10T00:44:30;42.30;41.07;43.39;;
66456;Laerm;56833;52.254;5.598;2023-05-10T00:44:41;42.29;41.17;43.33;;
66456;Laerm;56833;52.254;5.598;2023-05-10T00:44:51;42.30;40.86;43.13;;
66456;Laerm;56833;52.254;5.598;2023-05-10T00:45:02;42.33;41.31;43.69;;
66456;Laerm;56833;52.254;5.598;2023-05-10T00:45:12;42.31;41.31;43.40;;
66456;Laerm;56833;52.254;5.598;2023-05-10T00:45:22;42.31;41.23;43.51;;
66456;Laerm;56833;52.254;5.598;2023-05-10T00:45:33;42.28;41.34;43.28;;
66456;Laerm;56833;52.254;5.598;2023-05-10T00:45:45;42.27;41.21;43.48;;
66456;Laerm;56833;52.254;5.598;2023-05-10T00:45:56;42.29;40.77;43.28;;
66456;Laerm;56833;52.254;5.598;2023-05-10T00:46:06;42.27;41.38;43.33;;
66456;Laerm;56833;52.254;5.598;2023-05-10T00:46:16;42.30;41.14;43.21;;
66456;Laerm;56833;52.254;5.598;2023-05-10T00:46:27;42.24;41.20;43.33;;
66456;Laerm;56833;52.254;5.598;2023-05-10T00:46:38;42.22;41.30;43.28;;
66456;Laerm;56833;52.254;5.598;2023-05-10T00:46:48;42.23;41.18;43.41;;
66456;Laerm;56833;52.254;5.598;2023-05-10T00:46:59;42.21;41.03;43.10;;
66456;Laerm;56833;52.254;5.598;2023-05-10T00:47:10;42.26;41.16;43.36;;
66456;Laerm;56833;52.254;5.598;2023-05-10T00:47:22;42.27;41.29;43.35;;
66456;Laerm;56833;52.254;5.598;2023-05-10T00:47:32;42.22;41.34;43.18;;
66456;Laerm;56833;52.254;5.598;2023-05-10T00:47:42;42.29;41.14;43.43;;
66456;Laerm;56833;52.254;5.598;2023-05-10T00:47:53;42.27;41.24;43.19;;
66456;Laerm;56833;52.254;5.598;2023-05-10T00:48:05;42.21;41.08;43.29;;
66456;Laerm;56833;52.254;5.598;2023-05-10T00:48:15;42.22;40.99;43.07;;
66456;Laerm;56833;52.254;5.598;2023-05-10T00:48:26;42.23;41.12;43.24;;
66456;Laerm;56833;52.254;5.598;2023-05-10T00:48:36;42.24;41.30;43.13;;
66456;Laerm;56833;52.254;5.598;2023-05-10T00:48:46;42.25;40.73;43.24;;
66456;Laerm;56833;52.254;5.598;2023-05-10T00:48:57;42.21;41.04;43.11;;
66456;Laerm;56833;52.254;5.598;2023-05-10T00:49:07;42.26;41.23;43.08;;
66456;Laerm;56833;52.254;5.598;2023-05-10T00:49:18;42.25;41.33;43.26;;
66456;Laerm;56833;52.254;5.598;2023-05-10T00:49:29;42.23;41.09;43.58;;
66456;Laerm;56833;52.254;5.598;2023-05-10T00:49:39;42.23;41.01;43.25;;
66456;Laerm;56833;52.254;5.598;2023-05-10T00:49:50;42.26;41.16;43.07;;
66456;Laerm;56833;52.254;5.598;2023-05-10T00:50:02;42.21;41.23;43.37;;
66456;Laerm;56833;52.254;5.598;2023-05-10T00:50:12;42.23;41.21;43.16;;
66456;Laerm;56833;52.254;5.598;2023-05-10T00:50:23;42.26;41.14;43.23;;
66456;Laerm;56833;52.254;5.598;2023-05-10T00:50:33;42.20;40.97;43.14;;
66456;Laerm;56833;52.254;5.598;2023-05-10T00:50:44;42.26;41.26;43.38;;
66456;Laerm;56833;52.254;5.598;2023-05-10T00:50:54;42.20;41.29;43.53;;
66456;Laerm;56833;52.254;5.598;2023-05-10T00:51:05;42.21;41.26;43.25;;
66456;Laerm;56833;52.254;5.598;2023-05-10T00:51:16;42.24;41.22;43.14;;
66456;Laerm;56833;52.254;5.598;2023-05-10T00:51:26;42.25;41.39;43.39;;
66456;Laerm;56833;52.254;5.598;2023-05-10T00:51:36;42.27;40.99;43.09;;
66456;Laerm;56833;52.254;5.598;2023-05-10T00:51:47;42.25;41.38;43.30;;
66456;Laerm;56833;52.254;5.598;2023-05-10T00:51:57;42.28;41.04;43.27;;
66456;Laerm;56833;52.254;5.598;2023-05-10T00:52:08;42.24;41.17;43.13;;
66456;Laerm;56833;52.254;5.598;2023-05-10T00:52:19;42.24;41.31;43.25;;
66456;Laerm;56833;52.254;5.598;2023-05-10T00:52:29;42.27;41.30;43.29;;
66456;Laerm;56833;52.254;5.598;2023-05-10T00:52:41;42.23;41.22;43.10;;
66456;Laerm;56833;52.254;5.598;2023-05-10T00:52:52;42.26;41.11;43.37;;
66456;Laerm;56833;52.254;5.598;2023-05-10T00:53:03;42.27;41.19;43.37;;
66456;Laerm;56833;52.254;5.598;2023-05-10T00:53:13;42.25;41.40;43.33;;
66456;Laerm;56833;52.254;5.598;2023-05-10T00:53:24;42.22;41.03;43.13;;
66456;Laerm;56833;52.254;5.598;2023-05-10T00:53:34;42.25;41.34;43.13;;
66456;Laerm;56833;52.254;5.598;2023-05-10T00:53:45;42.22;40.84;43.14;;
66456;Laerm;56833;52.254;5.598;2023-05-10T00:53:55;42.24;40.58;43.22;;
66456;Laerm;56833;52.254;5.598;2023-05-10T00:54:06;42.20;41.18;43.23;;
66456;Laerm;56833;52.254;5.598;2023-05-10T00:54:17;42.21;41.13;43.23;;
66456;Laerm;56833;52.254;5.598;2023-05-10T00:54:28;42.31;40.83;43.23;;
66456;Laerm;56833;52.254;5.598;2023-05-10T00:54:38;42.32;41.02;43.39;;
66456;Laerm;56833;52.254;5.598;2023-05-10T00:54:52;42.28;41.00;43.57;;
66456;Laerm;56833;52.254;5.598;2023-05-10T00:55:02;42.29;41.20;43.37;;
66456;Laerm;56833;52.254;5.598;2023-05-10T00:55:14;42.28;41.16;43.11;;
66456;Laerm;56833;52.254;5.598;2023-05-10T00:55:24;42.34;41.13;43.30;;
66456;Laerm;56833;52.254;5.598;2023-05-10T00:55:34;42.35;41.31;43.29;;
66456;Laerm;56833;52.254;5.598;2023-05-10T00:55:45;42.30;41.31;43.20;;
66456;Laerm;56833;52.254;5.598;2023-05-10T00:55:55;42.31;41.35;43.49;;
66456;Laerm;56833;52.254;5.598;2023-05-10T00:56:07;42.34;41.21;43.34;;
66456;Laerm;56833;52.254;5.598;2023-05-10T00:56:17;42.29;41.15;43.33;;
66456;Laerm;56833;52.254;5.598;2023-05-10T00:56:28;42.30;41.15;43.18;;
66456;Laerm;56833;52.254;5.598;2023-05-10T00:56:40;42.31;41.31;43.25;;
66456;Laerm;56833;52.254;5.598;2023-05-10T00:56:50;42.34;41.15;43.46;;
66456;Laerm;56833;52.254;5.598;2023-05-10T00:57:01;42.28;41.48;43.66;;
66456;Laerm;56833;52.254;5.598;2023-05-10T00:57:11;42.32;41.00;43.34;;
66456;Laerm;56833;52.254;5.598;2023-05-10T00:57:22;42.29;41.30;43.38;;
66456;Laerm;56833;52.254;5.598;2023-05-10T00:57:32;42.31;41.33;43.26;;
66456;Laerm;56833;52.254;5.598;2023-05-10T00:57:42;42.25;41.31;43.33;;
66456;Laerm;56833;52.254;5.598;2023-05-10T00:57:53;42.32;40.84;43.07;;
66456;Laerm;56833;52.254;5.598;2023-05-10T00:58:04;42.36;41.28;43.50;;
66456;Laerm;56833;52.254;5.598;2023-05-10T00:58:14;42.31;41.47;43.57;;
66456;Laerm;56833;52.254;5.598;2023-05-10T00:58:25;42.33;41.22;43.23;;
66456;Laerm;56833;52.254;5.598;2023-05-10T00:58:39;42.32;41.10;43.40;;
66456;Laerm;56833;52.254;5.598;2023-05-10T00:58:49;42.32;41.14;43.23;;
66456;Laerm;56833;52.254;5.598;2023-05-10T00:59:00;42.35;40.95;43.43;;